sensor_id;sensor_type;location;lat;lon;timestamp;pressure;altitude;pressure_sealevel;temperature;humidity
71384;BME280;67558;52.166;5.004;2023-11-21T00:01:54;101142.97;;;12.69;58.99
71384;BME280;67558;52.166;5.004;2023-11-21T00:04:19;101132.75;;;12.66;59.04
71384;BME280;67558;52.166;5.004;2023-11-21T00:06:44;101140.81;;;12.66;59.00
71384;BME280;67558;52.166;5.004;2023-11-21T00:09:12;101145.63;;;12.64;58.80
71384;BME280;67558;52.166;5.004;2023-11-21T00:11:38;101152.09;;;12.63;58.88
71384;BME280;67558;52.166;5.004;2023-11-21T00:14:03;101153.16;;;12.62;58.80
71384;BME280;67558;52.166;5.004;2023-11-21T00:16:29;101155.84;;;12.62;58.76
71384;BME280;67558;52.166;5.004;2023-11-21T00:18:54;101157.44;;;12.58;59.04
71384;BME280;67558;52.166;5.004;2023-11-21T00:21:20;101162.81;;;12.58;59.05
71384;BME280;67558;52.166;5.004;2023-11-21T00:23:45;101164.16;;;12.56;58.86
71384;BME280;67558;52.166;5.004;2023-11-21T00:26:10;101174.91;;;12.56;58.91
71384;BME280;67558;52.166;5.004;2023-11-21T00:28:36;101165.50;;;12.53;58.92
71384;BME280;67558;52.166;5.004;2023-11-21T00:31:01;101159.88;;;12.55;59.03
71384;BME280;67558;52.166;5.004;2023-11-21T00:33:26;101166.06;;;12.55;58.98
71384;BME280;67558;52.166;5.004;2023-11-21T00:35:52;101162.56;;;12.55;59.00
71384;BME280;67558;52.166;5.004;2023-11-21T00:38:18;101160.16;;;12.53;58.89
71384;BME280;67558;52.166;5.004;2023-11-21T00:40:45;101159.34;;;12.53;58.96
71384;BME280;67558;52.166;5.004;2023-11-21T00:43:10;101172.50;;;12.44;59.20
71384;BME280;67558;52.166;5.004;2023-11-21T00:45:36;101158.81;;;12.30;59.79
71384;BME280;67558;52.166;5.004;2023-11-21T00:48:02;101174.34;;;12.28;59.85
71384;BME280;67558;52.166;5.004;2023-11-21T00:50:27;101163.63;;;12.23;59.84
71384;BME280;67558;52.166;5.004;2023-11-21T00:52:53;101171.69;;;12.23;59.96
71384;BME280;67558;52.166;5.004;2023-11-21T00:55:18;101168.47;;;12.21;59.87
71384;BME280;67558;52.166;5.004;2023-11-21T00:57:43;101166.03;;;12.19;59.86
71384;BME280;67558;52.166;5.004;2023-11-21T01:00:09;101176.25;;;12.22;59.76
71384;BME280;67558;52.166;5.004;2023-11-21T01:02:43;101182.97;;;12.20;60.09
71384;BME280;67558;52.166;5.004;2023-11-21T01:05:10;101185.34;;;12.21;60.30
71384;BME280;67558;52.166;5.004;2023-11-21T01:07:35;101177.84;;;12.23;60.16
71384;BME280;67558;52.166;5.004;2023-11-21T01:10:02;101184.28;;;12.27;60.30
71384;BME280;67558;52.166;5.004;2023-11-21T01:12:28;101186.72;;;12.29;60.12
71384;BME280;67558;52.166;5.004;2023-11-21T01:14:53;101186.44;;;12.36;60.47
71384;BME280;67558;52.166;5.004;2023-11-21T01:17:19;101187.78;;;12.38;60.44
71384;BME280;67558;52.166;5.004;2023-11-21T01:19:44;101180.56;;;12.44;60.54
71384;BME280;67558;52.166;5.004;2023-11-21T01:22:10;101182.44;;;12.48;60.52
71384;BME280;67558;52.166;5.004;2023-11-21T01:24:37;101190.47;;;12.54;60.74
71384;BME280;67558;52.166;5.004;2023-11-21T01:27:02;101195.03;;;12.58;60.53
71384;BME280;67558;52.166;5.004;2023-11-21T01:29:29;101203.59;;;12.60;60.72
71384;BME280;67558;52.166;5.004;2023-11-21T01:31:55;101195.84;;;12.64;60.50
71384;BME280;67558;52.166;5.004;2023-11-21T01:34:22;101198.78;;;12.67;60.78
71384;BME280;67558;52.166;5.004;2023-11-21T01:36:48;101200.38;;;12.68;60.67
71384;BME280;67558;52.166;5.004;2023-11-21T01:39:14;101200.94;;;12.70;60.68
71384;BME280;67558;52.166;5.004;2023-11-21T01:41:41;101206.56;;;12.74;60.55
71384;BME280;67558;52.166;5.004;2023-11-21T01:44:09;101210.06;;;12.75;60.70
71384;BME280;67558;52.166;5.004;2023-11-21T01:46:35;101210.03;;;12.80;60.59
71384;BME280;67558;52.166;5.004;2023-11-21T01:49:00;101219.72;;;12.81;60.80
71384;BME280;67558;52.166;5.004;2023-11-21T01:51:26;101221.59;;;12.85;60.66
71384;BME280;67558;52.166;5.004;2023-11-21T01:53:52;101228.28;;;12.88;60.67
71384;BME280;67558;52.166;5.004;2023-11-21T01:56:17;101227.22;;;12.89;60.63
71384;BME280;67558;52.166;5.004;2023-11-21T01:58:43;101229.06;;;13.09;60.37
71384;BME280;67558;52.166;5.004;2023-11-21T02:01:09;101226.91;;;13.16;60.05
71384;BME280;67558;52.166;5.004;2023-11-21T02:03:35;101227.44;;;13.18;60.23
71384;BME280;67558;52.166;5.004;2023-11-21T02:06:00;101242.75;;;13.23;60.18
71384;BME280;67558;52.166;5.004;2023-11-21T02:08:26;101247.03;;;13.24;59.90
71384;BME280;67558;52.166;5.004;2023-11-21T02:10:52;101242.19;;;13.26;60.25
71384;BME280;67558;52.166;5.004;2023-11-21T02:13:17;101244.91;;;13.31;60.17
71384;BME280;67558;52.166;5.004;2023-11-21T02:15:42;101251.09;;;13.31;60.01
71384;BME280;67558;52.166;5.004;2023-11-21T02:18:08;101252.66;;;13.38;60.21
71384;BME280;67558;52.166;5.004;2023-11-21T02:20:36;101255.63;;;13.41;60.08
71384;BME280;67558;52.166;5.004;2023-11-21T02:23:04;101248.66;;;13.40;60.06
71384;BME280;67558;52.166;5.004;2023-11-21T02:25:31;101253.44;;;13.48;59.93
71384;BME280;67558;52.166;5.004;2023-11-21T02:27:58;101252.38;;;13.49;60.04
71384;BME280;67558;52.166;5.004;2023-11-21T02:30:24;101258.03;;;13.53;60.00
71384;BME280;67558;52.166;5.004;2023-11-21T02:32:59;101260.16;;;13.56;60.15
71384;BME280;67558;52.166;5.004;2023-11-21T02:35:25;101260.94;;;13.57;60.06
71384;BME280;67558;52.166;5.004;2023-11-21T02:37:54;101256.38;;;13.57;59.95
71384;BME280;67558;52.166;5.004;2023-11-21T02:40:20;101259.31;;;13.61;60.23
71384;BME280;67558;52.166;5.004;2023-11-21T02:42:50;101264.16;;;13.64;60.01
71384;BME280;67558;52.166;5.004;2023-11-21T02:45:19;101261.47;;;13.64;60.07
71384;BME280;67558;52.166;5.004;2023-11-21T02:47:46;101268.19;;;13.66;60.21
71384;BME280;67558;52.166;5.004;2023-11-21T02:50:12;101263.63;;;13.62;60.24
71384;BME280;67558;52.166;5.004;2023-11-21T02:52:37;101268.19;;;13.66;60.14
71384;BME280;67558;52.166;5.004;2023-11-21T02:55:04;101259.59;;;13.64;60.20
71384;BME280;67558;52.166;5.004;2023-11-21T02:57:29;101258.22;;;13.67;60.23
71384;BME280;67558;52.166;5.004;2023-11-21T02:59:55;101259.81;;;13.68;60.30
71384;BME280;67558;52.166;5.004;2023-11-21T03:02:20;101266.81;;;13.69;60.32
71384;BME280;67558;52.166;5.004;2023-11-21T03:04:46;101256.88;;;13.69;60.25
71384;BME280;67558;52.166;5.004;2023-11-21T03:07:13;101262.78;;;13.71;60.36
71384;BME280;67558;52.166;5.004;2023-11-21T03:09:38;101256.34;;;13.72;60.26
71384;BME280;67558;52.166;5.004;2023-11-21T03:12:04;101256.34;;;13.72;60.26
71384;BME280;67558;52.166;5.004;2023-11-21T03:14:30;101263.56;;;13.77;60.40
71384;BME280;67558;52.166;5.004;2023-11-21T03:16:55;101259.81;;;13.73;60.43
71384;BME280;67558;52.166;5.004;2023-11-21T03:19:21;101264.09;;;13.74;60.24
71384;BME280;67558;52.166;5.004;2023-11-21T03:21:47;101270.53;;;13.78;60.32
71384;BME280;67558;52.166;5.004;2023-11-21T03:24:12;101279.69;;;13.77;60.31
71384;BME280;67558;52.166;5.004;2023-11-21T03:26:37;101281.03;;;13.80;60.54
71384;BME280;67558;52.166;5.004;2023-11-21T03:29:03;101277.00;;;13.77;60.24
71384;BME280;67558;52.166;5.004;2023-11-21T03:31:30;101268.94;;;13.77;60.37
71384;BME280;67558;52.166;5.004;2023-11-21T03:33:55;101273.53;;;13.77;60.39
71384;BME280;67558;52.166;5.004;2023-11-21T03:36:21;101280.25;;;13.79;60.47
71384;BME280;67558;52.166;5.004;2023-11-21T03:38:48;101280.50;;;13.78;60.22
71384;BME280;67558;52.166;5.004;2023-11-21T03:41:13;101282.09;;;13.79;60.59
71384;BME280;67558;52.166;5.004;2023-11-21T03:43:39;101287.22;;;13.80;60.19
71384;BME280;67558;52.166;5.004;2023-11-21T03:46:05;101284.78;;;13.79;60.42
71384;BME280;67558;52.166;5.004;2023-11-21T03:48:31;101287.22;;;13.80;60.36
71384;BME280;67558;52.166;5.004;2023-11-21T03:50:58;101284.53;;;13.80;60.43
71384;BME280;67558;52.166;5.004;2023-11-21T03:53:23;101284.53;;;13.80;60.35
71384;BME280;67558;52.166;5.004;2023-11-21T03:55:49;101294.22;;;13.81;60.44
71384;BME280;67558;52.166;5.004;2023-11-21T03:58:15;101293.13;;;13.82;60.40
71384;BME280;67558;52.166;5.004;2023-11-21T04:00:40;101295.28;;;13.80;60.43
71384;BME280;67558;52.166;5.004;2023-11-21T04:03:06;101298.75;;;13.81;60.53
71384;BME280;67558;52.166;5.004;2023-11-21T04:05:32;101316.25;;;13.83;60.32
71384;BME280;67558;52.166;5.004;2023-11-21T04:07:57;101308.72;;;13.85;60.33
71384;BME280;67558;52.166;5.004;2023-11-21T04:10:23;101317.06;;;13.84;60.36
71384;BME280;67558;52.166;5.004;2023-11-21T04:12:48;101303.34;;;13.85;60.60
71384;BME280;67558;52.166;5.004;2023-11-21T04:15:14;101322.69;;;13.87;60.43
71384;BME280;67558;52.166;5.004;2023-11-21T04:17:40;101316.22;;;13.88;60.42
71384;BME280;67558;52.166;5.004;2023-11-21T04:20:06;101318.66;;;13.90;60.50
71384;BME280;67558;52.166;5.004;2023-11-21T04:22:36;101322.94;;;13.91;60.49
71384;BME280;67558;52.166;5.004;2023-11-21T04:25:02;101326.97;;;13.88;60.47
71384;BME280;67558;52.166;5.004;2023-11-21T04:27:27;101333.44;;;13.87;60.61
71384;BME280;67558;52.166;5.004;2023-11-21T04:29:53;101340.44;;;13.88;60.61
71384;BME280;67558;52.166;5.004;2023-11-21T04:32:18;101344.72;;;13.89;60.65
71384;BME280;67558;52.166;5.004;2023-11-21T04:34:43;101343.91;;;13.89;60.72
71384;BME280;67558;52.166;5.004;2023-11-21T04:37:08;101357.09;;;13.90;60.71
71384;BME280;67558;52.166;5.004;2023-11-21T04:39:35;101356.53;;;13.93;60.62
71384;BME280;67558;52.166;5.004;2023-11-21T04:42:01;101361.38;;;13.97;60.72
71384;BME280;67558;52.166;5.004;2023-11-21T04:44:26;101351.94;;;13.99;60.83
71384;BME280;67558;52.166;5.004;2023-11-21T04:46:51;101362.16;;;14.02;60.72
71384;BME280;67558;52.166;5.004;2023-11-21T04:49:17;101354.34;;;14.06;60.70
71384;BME280;67558;52.166;5.004;2023-11-21T04:51:42;101356.50;;;14.09;60.74
71384;BME280;67558;52.166;5.004;2023-11-21T04:54:07;101361.06;;;14.08;60.85
71384;BME280;67558;52.166;5.004;2023-11-21T04:56:33;101354.88;;;14.08;60.71
71384;BME280;67558;52.166;5.004;2023-11-21T04:58:59;101361.31;;;14.12;60.67
71384;BME280;67558;52.166;5.004;2023-11-21T05:01:24;101365.34;;;14.14;60.58
71384;BME280;67558;52.166;5.004;2023-11-21T05:03:50;101369.66;;;14.16;60.43
71384;BME280;67558;52.166;5.004;2023-11-21T05:06:15;101372.88;;;14.18;60.52
71384;BME280;67558;52.166;5.004;2023-11-21T05:08:41;101380.69;;;14.14;60.56
71384;BME280;67558;52.166;5.004;2023-11-21T05:11:07;101376.09;;;14.14;60.58
71384;BME280;67558;52.166;5.004;2023-11-21T05:13:34;101379.88;;;14.13;60.67
71384;BME280;67558;52.166;5.004;2023-11-21T05:15:59;101380.69;;;14.14;60.62
71384;BME280;67558;52.166;5.004;2023-11-21T05:18:25;101378.81;;;14.09;60.82
71384;BME280;67558;52.166;5.004;2023-11-21T05:20:55;101387.41;;;14.17;60.77
71384;BME280;67558;52.166;5.004;2023-11-21T05:23:20;101382.81;;;14.17;60.89
71384;BME280;67558;52.166;5.004;2023-11-21T05:25:46;101379.31;;;14.17;60.96
71384;BME280;67558;52.166;5.004;2023-11-21T05:28:11;101387.13;;;14.18;60.85
71384;BME280;67558;52.166;5.004;2023-11-21T05:30:37;101384.72;;;14.17;60.97
71384;BME280;67558;52.166;5.004;2023-11-21T05:33:04;101384.97;;;14.15;60.91
71384;BME280;67558;52.166;5.004;2023-11-21T05:35:29;101397.88;;;14.18;60.91
71384;BME280;67558;52.166;5.004;2023-11-21T05:37:55;101406.50;;;14.20;61.00
71384;BME280;67558;52.166;5.004;2023-11-21T05:40:20;101408.09;;;14.21;61.05
71384;BME280;67558;52.166;5.004;2023-11-21T05:42:47;101415.91;;;14.23;61.14
71384;BME280;67558;52.166;5.004;2023-11-21T05:45:13;101426.94;;;14.26;61.10
71384;BME280;67558;52.166;5.004;2023-11-21T05:47:40;101421.53;;;14.26;61.21
71384;BME280;67558;52.166;5.004;2023-11-21T05:50:08;101415.63;;;14.24;61.51
71384;BME280;67558;52.166;5.004;2023-11-21T05:52:41;101419.91;;;14.25;61.61
71384;BME280;67558;52.166;5.004;2023-11-21T05:55:07;101425.84;;;14.27;61.46
71384;BME280;67558;52.166;5.004;2023-11-21T05:57:39;101423.94;;;14.28;61.42
71384;BME280;67558;52.166;5.004;2023-11-21T06:00:08;101430.69;;;14.30;61.33
71384;BME280;67558;52.166;5.004;2023-11-21T06:02:41;101440.88;;;14.33;61.41
71384;BME280;67558;52.166;5.004;2023-11-21T06:05:07;101444.63;;;14.32;61.52
71384;BME280;67558;52.166;5.004;2023-11-21T06:07:33;101449.22;;;14.32;61.45
71384;BME280;67558;52.166;5.004;2023-11-21T06:09:59;101454.38;;;14.28;61.57
71384;BME280;67558;52.166;5.004;2023-11-21T06:12:24;101458.09;;;14.32;61.59
71384;BME280;67558;52.166;5.004;2023-11-21T06:14:50;101461.63;;;14.33;61.70
71384;BME280;67558;52.166;5.004;2023-11-21T06:17:16;101465.06;;;14.39;61.45
71384;BME280;67558;52.166;5.004;2023-11-21T06:19:43;101464.53;;;14.37;61.54
71384;BME280;67558;52.166;5.004;2023-11-21T06:22:10;101472.88;;;14.40;61.40
71384;BME280;67558;52.166;5.004;2023-11-21T06:24:36;101468.31;;;14.41;61.42
71384;BME280;67558;52.166;5.004;2023-11-21T06:27:03;101463.22;;;14.39;61.41
71384;BME280;67558;52.166;5.004;2023-11-21T06:29:30;101461.06;;;14.41;61.55
71384;BME280;67558;52.166;5.004;2023-11-21T06:31:55;101464.53;;;14.42;61.25
71384;BME280;67558;52.166;5.004;2023-11-21T06:34:20;101467.78;;;14.44;61.37
71384;BME280;67558;52.166;5.004;2023-11-21T06:36:46;101472.63;;;14.42;61.54
71384;BME280;67558;52.166;5.004;2023-11-21T06:39:12;101471.53;;;14.43;61.65
71384;BME280;67558;52.166;5.004;2023-11-21T06:41:40;101477.44;;;14.45;61.80
71384;BME280;67558;52.166;5.004;2023-11-21T06:44:05;101488.75;;;14.47;61.73
71384;BME280;67558;52.166;5.004;2023-11-21T06:46:31;101489.28;;;14.49;61.68
71384;BME280;67558;52.166;5.004;2023-11-21T06:48:56;101491.97;;;14.49;61.68
71384;BME280;67558;52.166;5.004;2023-11-21T06:51:21;101503.00;;;14.52;61.87
71384;BME280;67558;52.166;5.004;2023-11-21T06:53:47;101497.63;;;14.52;61.68
71384;BME280;67558;52.166;5.004;2023-11-21T06:56:18;101499.50;;;14.52;61.89
71384;BME280;67558;52.166;5.004;2023-11-21T06:58:45;101502.19;;;14.52;62.09
71384;BME280;67558;52.166;5.004;2023-11-21T07:01:14;101513.50;;;14.54;62.04
71384;BME280;67558;52.166;5.004;2023-11-21T07:03:40;101512.97;;;14.57;61.96
71384;BME280;67558;52.166;5.004;2023-11-21T07:06:07;101514.31;;;14.60;62.11
71384;BME280;67558;52.166;5.004;2023-11-21T07:08:32;101523.19;;;14.60;62.05
71384;BME280;67558;52.166;5.004;2023-11-21T07:10:58;101523.72;;;14.62;62.25
71384;BME280;67558;52.166;5.004;2023-11-21T07:13:23;101523.19;;;14.65;62.14
71384;BME280;67558;52.166;5.004;2023-11-21T07:15:49;101518.59;;;14.66;62.35
71384;BME280;67558;52.166;5.004;2023-11-21T07:18:14;101525.84;;;14.70;62.15
71384;BME280;67558;52.166;5.004;2023-11-21T07:20:40;101523.41;;;14.69;62.34
71384;BME280;67558;52.166;5.004;2023-11-21T07:23:05;101520.72;;;14.74;62.24
71384;BME280;67558;52.166;5.004;2023-11-21T07:25:31;101522.31;;;14.75;62.27
71384;BME280;67558;52.166;5.004;2023-11-21T07:27:57;101527.44;;;14.77;62.55
71384;BME280;67558;52.166;5.004;2023-11-21T07:30:22;101536.59;;;14.81;62.37
71384;BME280;67558;52.166;5.004;2023-11-21T07:32:48;101537.38;;;14.81;62.56
71384;BME280;67558;52.166;5.004;2023-11-21T07:35:13;101539.28;;;14.81;62.48
71384;BME280;67558;52.166;5.004;2023-11-21T07:37:39;101544.94;;;14.84;62.46
71384;BME280;67558;52.166;5.004;2023-11-21T07:40:05;101527.44;;;14.77;62.76
71384;BME280;67558;52.166;5.004;2023-11-21T07:42:33;101550.81;;;14.91;62.57
71384;BME280;67558;52.166;5.004;2023-11-21T07:44:59;101555.09;;;14.92;62.64
71384;BME280;67558;52.166;5.004;2023-11-21T07:47:25;101564.00;;;14.93;62.45
71384;BME280;67558;52.166;5.004;2023-11-21T07:49:52;101564.53;;;14.95;62.81
71384;BME280;67558;52.166;5.004;2023-11-21T07:52:18;101566.16;;;14.91;63.13
71384;BME280;67558;52.166;5.004;2023-11-21T07:54:44;101571.84;;;14.84;63.17
71384;BME280;67558;52.166;5.004;2023-11-21T07:57:09;101579.94;;;14.79;63.56
71384;BME280;67558;52.166;5.004;2023-11-21T07:59:38;101581.50;;;14.90;63.05
71384;BME280;67558;52.166;5.004;2023-11-21T08:02:03;101584.25;;;14.80;63.44
71384;BME280;67558;52.166;5.004;2023-11-21T08:04:29;101585.59;;;14.83;63.46
71384;BME280;67558;52.166;5.004;2023-11-21T08:06:57;101600.66;;;14.84;63.50
71384;BME280;67558;52.166;5.004;2023-11-21T08:09:22;101601.75;;;14.78;63.71
71384;BME280;67558;52.166;5.004;2023-11-21T08:11:49;101599.31;;;14.81;63.76
71384;BME280;67558;52.166;5.004;2023-11-21T08:14:15;101600.91;;;14.87;63.62
71384;BME280;67558;52.166;5.004;2023-11-21T08:16:40;101611.44;;;14.84;63.98
71384;BME280;67558;52.166;5.004;2023-11-21T08:19:12;101610.91;;;14.87;63.75
71384;BME280;67558;52.166;5.004;2023-11-21T08:21:37;101617.63;;;14.89;64.05
71384;BME280;67558;52.166;5.004;2023-11-21T08:24:08;101625.44;;;14.91;63.73
71384;BME280;67558;52.166;5.004;2023-11-21T08:26:36;101637.81;;;14.92;63.83
71384;BME280;67558;52.166;5.004;2023-11-21T08:29:01;101637.00;;;14.91;63.89
71384;BME280;67558;52.166;5.004;2023-11-21T08:31:27;101639.69;;;14.97;64.08
71384;BME280;67558;52.166;5.004;2023-11-21T08:33:54;101642.38;;;14.97;64.08
71384;BME280;67558;52.166;5.004;2023-11-21T08:36:23;101649.63;;;15.01;64.09
71384;BME280;67558;52.166;5.004;2023-11-21T08:38:50;101647.19;;;15.05;64.03
71384;BME280;67558;52.166;5.004;2023-11-21T08:41:17;101644.78;;;15.03;64.25
71384;BME280;67558;52.166;5.004;2023-11-21T08:43:43;101655.03;;;15.06;64.28
71384;BME280;67558;52.166;5.004;2023-11-21T08:46:10;101648.81;;;15.11;64.49
71384;BME280;67558;52.166;5.004;2023-11-21T08:48:36;101656.31;;;15.14;64.53
71384;BME280;67558;52.166;5.004;2023-11-21T08:51:02;101663.84;;;15.22;64.25
71384;BME280;67558;52.166;5.004;2023-11-21T08:53:29;101663.31;;;15.20;64.14
71384;BME280;67558;52.166;5.004;2023-11-21T08:55:54;101672.72;;;15.28;64.08
71384;BME280;67558;52.166;5.004;2023-11-21T08:58:19;101674.88;;;15.26;64.08
71384;BME280;67558;52.166;5.004;2023-11-21T09:00:45;101684.84;;;15.30;63.96
71384;BME280;67558;52.166;5.004;2023-11-21T09:03:12;101683.47;;;15.33;63.75
71384;BME280;67558;52.166;5.004;2023-11-21T09:05:38;101676.78;;;15.25;63.83
71384;BME280;67558;52.166;5.004;2023-11-21T09:08:05;101684.63;;;15.11;64.17
71384;BME280;67558;52.166;5.004;2023-11-21T09:10:30;101681.66;;;15.13;64.04
71384;BME280;67558;52.166;5.004;2023-11-21T09:12:56;101687.59;;;15.15;63.96
71384;BME280;67558;52.166;5.004;2023-11-21T09:15:22;101695.44;;;15.01;64.18
71384;BME280;67558;52.166;5.004;2023-11-21T09:17:47;101699.25;;;14.95;64.58
71384;BME280;67558;52.166;5.004;2023-11-21T09:20:13;101720.22;;;14.98;64.25
71384;BME280;67558;52.166;5.004;2023-11-21T09:22:40;101707.03;;;15.02;63.81
71384;BME280;67558;52.166;5.004;2023-11-21T09:25:05;101712.72;;;14.95;64.14
71384;BME280;67558;52.166;5.004;2023-11-21T09:27:32;101719.69;;;14.96;64.05
71384;BME280;67558;52.166;5.004;2023-11-21T09:29:57;101731.56;;;14.95;64.14
71384;BME280;67558;52.166;5.004;2023-11-21T09:32:23;101739.09;;;14.98;64.18
71384;BME280;67558;52.166;5.004;2023-11-21T09:34:49;101737.19;;;14.99;64.15
71384;BME280;67558;52.166;5.004;2023-11-21T09:37:15;101749.06;;;14.98;63.84
71384;BME280;67558;52.166;5.004;2023-11-21T09:39:41;101752.03;;;14.86;64.25
71384;BME280;67558;52.166;5.004;2023-11-21T09:42:17;101760.38;;;14.89;64.26
71384;BME280;67558;52.166;5.004;2023-11-21T09:45:03;101762.81;;;14.91;64.40
71384;BME280;67558;52.166;5.004;2023-11-21T09:47:32;101762.53;;;14.92;64.24
71384;BME280;67558;52.166;5.004;2023-11-21T09:50:01;101763.88;;;15.00;64.08
71384;BME280;67558;52.166;5.004;2023-11-21T09:52:28;101760.38;;;14.94;64.23
71384;BME280;67558;52.166;5.004;2023-11-21T09:54:55;101769.00;;;15.02;64.04
71384;BME280;67558;52.166;5.004;2023-11-21T09:57:24;101775.72;;;15.04;64.10
71384;BME280;67558;52.166;5.004;2023-11-21T09:59:54;101781.09;;;14.99;64.37
71384;BME280;67558;52.166;5.004;2023-11-21T10:02:26;101780.03;;;15.00;64.35
71384;BME280;67558;52.166;5.004;2023-11-21T10:04:53;101783.25;;;15.07;64.13
71384;BME280;67558;52.166;5.004;2023-11-21T10:07:20;101781.66;;;15.01;64.42
71384;BME280;67558;52.166;5.004;2023-11-21T10:09:46;101787.03;;;15.01;64.20
71384;BME280;67558;52.166;5.004;2023-11-21T10:12:14;101788.13;;;15.00;64.22
71384;BME280;67558;52.166;5.004;2023-11-21T10:14:41;101790.81;;;15.00;64.21
71384;BME280;67558;52.166;5.004;2023-11-21T10:17:10;101796.75;;;14.97;64.19
71384;BME280;67558;52.166;5.004;2023-11-21T10:19:38;101805.09;;;15.06;63.92
71384;BME280;67558;52.166;5.004;2023-11-21T10:22:05;101826.91;;;14.99;64.15
71384;BME280;67558;52.166;5.004;2023-11-21T10:24:32;101833.66;;;15.07;64.13
71384;BME280;67558;52.166;5.004;2023-11-21T10:26:57;101835.53;;;15.11;63.97
71384;BME280;67558;52.166;5.004;2023-11-21T10:29:23;101832.56;;;15.03;63.98
71384;BME280;67558;52.166;5.004;2023-11-21T10:31:51;101844.97;;;15.09;63.66
71384;BME280;67558;52.166;5.004;2023-11-21T10:34:19;101846.59;;;15.15;63.76
71384;BME280;67558;52.166;5.004;2023-11-21T10:36:45;101849.00;;;15.22;63.43
71384;BME280;67558;52.166;5.004;2023-11-21T10:39:16;101850.38;;;15.19;63.40
71384;BME280;67558;52.166;5.004;2023-11-21T10:41:45;101842.28;;;15.19;63.36
71384;BME280;67558;52.166;5.004;2023-11-21T10:44:17;101855.47;;;15.21;63.42
71384;BME280;67558;52.166;5.004;2023-11-21T10:46:54;101859.78;;;15.27;63.43
71384;BME280;67558;52.166;5.004;2023-11-21T10:49:26;101862.75;;;15.20;63.51
71384;BME280;67558;52.166;5.004;2023-11-21T10:51:53;101873.25;;;15.11;63.34
71384;BME280;67558;52.166;5.004;2023-11-21T10:54:19;101874.91;;;15.12;63.14
71384;BME280;67558;52.166;5.004;2023-11-21T10:56:47;101881.38;;;15.17;63.21
71384;BME280;67558;52.166;5.004;2023-11-21T10:59:13;101875.97;;;15.17;63.19
71384;BME280;67558;52.166;5.004;2023-11-21T11:01:42;101886.75;;;15.17;63.37
71384;BME280;67558;52.166;5.004;2023-11-21T11:04:08;101883.53;;;15.14;63.18
71384;BME280;67558;52.166;5.004;2023-11-21T11:06:39;101891.31;;;15.11;63.17
71384;BME280;67558;52.166;5.004;2023-11-21T11:09:05;101883.53;;;15.14;63.04
71384;BME280;67558;52.166;5.004;2023-11-21T11:11:33;101888.09;;;15.04;63.28
71384;BME280;67558;52.166;5.004;2023-11-21T11:13:59;101897.00;;;15.14;63.16
71384;BME280;67558;52.166;5.004;2023-11-21T11:16:27;101899.69;;;15.04;63.41
71384;BME280;67558;52.166;5.004;2023-11-21T11:18:53;101895.09;;;15.00;63.25
71384;BME280;67558;52.166;5.004;2023-11-21T11:21:46;101891.59;;;15.04;63.12
71384;BME280;67558;52.166;5.004;2023-11-21T11:27:00;101901.84;;;15.12;62.94
71384;BME280;67558;52.166;5.004;2023-11-21T11:32:43;101899.94;;;15.18;62.65
71384;BME280;67558;52.166;5.004;2023-11-21T11:35:26;101902.38;;;15.20;62.87
71384;BME280;67558;52.166;5.004;2023-11-21T11:37:56;101897.53;;;15.22;62.83
71384;BME280;67558;52.166;5.004;2023-11-21T11:40:22;101905.88;;;15.25;62.61
71384;BME280;67558;52.166;5.004;2023-11-21T11:42:58;101907.75;;;15.20;62.72
71384;BME280;67558;52.166;5.004;2023-11-21T11:45:32;101910.47;;;15.20;62.83
71384;BME280;67558;52.166;5.004;2023-11-21T11:47:59;101915.03;;;15.14;62.75
71384;BME280;67558;52.166;5.004;2023-11-21T11:50:25;101923.41;;;15.12;63.01
71384;BME280;67558;52.166;5.004;2023-11-21T11:52:53;101919.09;;;15.06;63.01
71384;BME280;67558;52.166;5.004;2023-11-21T11:55:23;101922.31;;;15.08;62.87
71384;BME280;67558;52.166;5.004;2023-11-21T11:57:51;101910.97;;;15.01;62.87
71384;BME280;67558;52.166;5.004;2023-11-21T12:02:48;101932.28;;;15.13;63.02
71384;BME280;67558;52.166;5.004;2023-11-21T12:05:20;101924.72;;;15.10;62.79
71384;BME280;67558;52.166;5.004;2023-11-21T12:10:24;101933.34;;;14.91;63.34
71384;BME280;67558;52.166;5.004;2023-11-21T12:13:01;101942.53;;;15.06;62.70
71384;BME280;67558;52.166;5.004;2023-11-21T12:15:26;101925.53;;;15.00;62.84
71384;BME280;67558;52.166;5.004;2023-11-21T12:17:54;101942.25;;;15.02;62.72
71384;BME280;67558;52.166;5.004;2023-11-21T12:20:21;101938.47;;;14.98;62.69
71384;BME280;67558;52.166;5.004;2023-11-21T12:22:51;101937.94;;;14.91;62.89
71384;BME280;67558;52.166;5.004;2023-11-21T12:25:19;101959.22;;;15.03;62.48
71384;BME280;67558;52.166;5.004;2023-11-21T12:27:45;101958.66;;;15.01;62.50
71384;BME280;67558;52.166;5.004;2023-11-21T12:30:12;101960.28;;;15.12;62.13
71384;BME280;67558;52.166;5.004;2023-11-21T12:32:43;101974.59;;;15.12;62.07
71384;BME280;67558;52.166;5.004;2023-11-21T12:35:09;101976.22;;;15.08;62.16
71384;BME280;67558;52.166;5.004;2023-11-21T12:37:37;101981.09;;;15.17;61.95
71384;BME280;67558;52.166;5.004;2023-11-21T12:40:05;101975.41;;;15.18;61.98
71384;BME280;67558;52.166;5.004;2023-11-21T12:42:32;101968.94;;;15.19;62.06
71384;BME280;67558;52.166;5.004;2023-11-21T12:45:27;101971.91;;;15.33;61.94
71384;BME280;67558;52.166;5.004;2023-11-21T12:48:02;101970.84;;;15.34;61.68
71384;BME280;67558;52.166;5.004;2023-11-21T12:50:33;101977.84;;;15.30;61.95
71384;BME280;67558;52.166;5.004;2023-11-21T12:53:04;101982.44;;;15.34;61.79
71384;BME280;67558;52.166;5.004;2023-11-21T12:55:31;101990.78;;;15.33;61.82
71384;BME280;67558;52.166;5.004;2023-11-21T12:57:58;101990.25;;;15.41;61.62
71384;BME280;67558;52.166;5.004;2023-11-21T13:00:45;101993.22;;;15.45;61.48